Time;durP1;ratioP1;P1;durP2;ratioP2;P2;SDS_P1;SDS_P2;PMS_P1;PMS_P2;Temp;Humidity;BMP_temperature;BMP_pressure;BME280_temperature;BME280_humidity;BME280_pressure;Samples;Min_cycle;Max_cycle;Signal;HPM_P1;HPM_P2
2022/03/08 00:00:19;;;;;;;29.77;16.13;;;4.30;58.80;;;;;;5139644;27;20079;-81
2022/03/08 00:02:45;;;;;;;29.13;14.10;;;4.30;58.70;;;;;;5119704;27;20130;-81
2022/03/08 00:05:10;;;;;;;25.02;12.65;;;4.40;58.70;;;;;;5138127;27;20554;-81
2022/03/08 00:07:37;;;;;;;27.40;13.60;;;4.30;58.60;;;;;;5119841;27;20035;-81
2022/03/08 00:10:05;;;;;;;27.83;13.70;;;4.40;58.70;;;;;;5138279;27;20126;-81
2022/03/08 00:12:31;;;;;;;23.17;12.73;;;4.40;58.70;;;;;;5115916;27;20556;-81
2022/03/08 00:14:57;;;;;;;24.88;13.30;;;4.40;58.70;;;;;;5116370;28;20071;-81
2022/03/08 00:17:23;;;;;;;28.85;14.60;;;4.30;59.20;;;;;;5117845;28;20030;-81
2022/03/08 00:19:48;;;;;;;25.75;13.63;;;4.30;59.20;;;;;;5117212;28;20020;-81
2022/03/08 00:22:14;;;;;;;27.23;12.13;;;4.30;59.20;;;;;;5117347;27;20036;-81
2022/03/08 00:24:40;;;;;;;28.38;12.52;;;4.30;59.20;;;;;;5134137;27;20078;-81
2022/03/08 00:27:05;;;;;;;29.17;14.75;;;4.30;59.20;;;;;;5137807;27;20099;-81
2022/03/08 00:29:31;;;;;;;24.42;13.02;;;4.30;59.30;;;;;;5124803;27;20039;-81
2022/03/08 00:31:57;;;;;;;26.27;14.85;;;4.30;59.30;;;;;;5128414;27;20500;-82
2022/03/08 00:34:22;;;;;;;21.08;11.38;;;4.30;59.30;;;;;;5138010;27;20015;-81
2022/03/08 00:36:48;;;;;;;22.27;14.75;;;4.30;59.50;;;;;;5137821;27;20027;-81
2022/03/08 00:39:14;;;;;;;27.10;14.50;;;4.20;59.80;;;;;;5119426;27;20030;-81
2022/03/08 00:41:40;;;;;;;25.65;15.57;;;4.30;59.60;;;;;;5117308;28;20015;-80
2022/03/08 00:44:06;;;;;;;27.25;16.10;;;4.30;59.50;;;;;;5126546;27;20437;-81
2022/03/08 00:46:32;;;;;;;27.58;14.63;;;4.30;59.60;;;;;;5137606;27;20034;-81
2022/03/08 00:48:58;;;;;;;33.22;15.35;;;4.20;60.00;;;;;;5136395;27;20027;-81
2022/03/08 00:51:25;;;;;;;19.58;11.23;;;4.20;60.10;;;;;;5122384;27;20035;-81
2022/03/08 00:53:50;;;;;;;23.27;12.85;;;4.20;60.30;;;;;;5116742;28;20473;-81
2022/03/08 00:56:16;;;;;;;26.75;12.60;;;4.20;60.20;;;;;;5116575;28;20112;-81
2022/03/08 00:58:42;;;;;;;22.90;11.65;;;4.20;60.30;;;;;;5116766;28;20503;-80
2022/03/08 01:01:08;;;;;;;26.25;14.13;;;4.20;60.30;;;;;;5123286;27;20385;-81
2022/03/08 01:03:34;;;;;;;21.42;12.52;;;4.10;60.60;;;;;;5119204;27;20027;-81
2022/03/08 01:06:00;;;;;;;23.25;12.95;;;4.20;60.60;;;;;;5122567;27;20442;-81
2022/03/08 01:08:26;;;;;;;23.73;13.57;;;4.10;60.70;;;;;;5135804;27;20034;-81
2022/03/08 01:10:52;;;;;;;26.27;13.60;;;4.10;60.60;;;;;;5136097;27;20027;-81
2022/03/08 01:13:18;;;;;;;22.05;11.40;;;4.20;60.60;;;;;;5144238;27;20051;-81
2022/03/08 01:15:44;;;;;;;25.98;14.02;;;4.10;60.80;;;;;;5135886;27;20537;-81
2022/03/08 01:18:09;;;;;;;30.67;15.80;;;4.20;60.80;;;;;;5136427;27;20484;-81
2022/03/08 01:20:35;;;;;;;20.75;12.52;;;4.20;61.00;;;;;;5143803;27;20516;-82
2022/03/08 01:23:01;;;;;;;22.88;12.40;;;4.10;61.10;;;;;;5157616;27;20023;-81
2022/03/08 01:25:27;;;;;;;26.25;12.10;;;4.10;61.10;;;;;;5157388;27;20041;-81
2022/03/08 01:27:53;;;;;;;28.10;12.90;;;4.10;61.20;;;;;;5151290;27;20440;-81
2022/03/08 01:30:21;;;;;;;24.17;13.80;;;4.10;61.40;;;;;;5136882;27;20496;-81
2022/03/08 01:32:47;;;;;;;21.80;12.38;;;4.10;61.50;;;;;;5136622;27;20546;-81
2022/03/08 01:35:14;;;;;;;23.50;11.88;;;4.10;61.50;;;;;;5136625;27;20023;-81
2022/03/08 01:37:40;;;;;;;28.08;13.23;;;4.10;61.60;;;;;;5136906;27;20064;-81
2022/03/08 01:40:08;;;;;;;26.98;13.93;;;4.10;61.50;;;;;;5117775;27;20031;-81
2022/03/08 01:42:33;;;;;;;29.15;14.48;;;4.00;61.60;;;;;;5136517;27;20493;-81
2022/03/08 01:44:59;;;;;;;26.42;13.70;;;4.10;61.60;;;;;;5136657;27;20023;-81
2022/03/08 01:47:26;;;;;;;26.58;14.50;;;4.20;61.60;;;;;;5136500;27;20503;-81
2022/03/08 01:49:53;;;;;;;20.63;12.43;;;4.20;61.30;;;;;;5136189;27;20506;-81
2022/03/08 01:52:21;;;;;;;22.50;11.02;;;4.30;61.30;;;;;;5136336;27;20027;-81
2022/03/08 01:54:48;;;;;;;29.55;14.35;;;4.30;60.90;;;;;;5136277;27;20102;-81
2022/03/08 01:57:14;;;;;;;24.60;13.57;;;4.50;60.90;;;;;;5118048;27;20188;-81
2022/03/08 01:59:40;;;;;;;24.65;14.07;;;4.50;60.80;;;;;;5136352;27;20026;-81
2022/03/08 02:02:07;;;;;;;28.38;13.98;;;4.50;60.70;;;;;;5117727;27;20030;-81
2022/03/08 02:04:33;;;;;;;27.52;14.52;;;4.50;60.80;;;;;;5117967;27;20054;-81
2022/03/08 02:07:00;;;;;;;22.45;12.43;;;4.40;61.00;;;;;;5117543;27;20023;-81
2022/03/08 02:09:26;;;;;;;23.75;11.80;;;4.30;61.00;;;;;;5131965;27;20055;-80
2022/03/08 02:11:52;;;;;;;27.13;14.07;;;4.20;61.40;;;;;;5135824;27;20043;-81
2022/03/08 02:14:18;;;;;;;25.60;13.18;;;4.20;61.70;;;;;;5136159;27;20031;-81
2022/03/08 02:16:45;;;;;;;25.25;14.27;;;4.30;61.50;;;;;;5117540;28;20031;-81
2022/03/08 02:19:12;;;;;;;23.63;11.68;;;4.30;61.80;;;;;;5136219;28;20080;-81
2022/03/08 02:21:39;;;;;;;24.52;12.88;;;4.30;61.70;;;;;;5136032;27;20374;-80
2022/03/08 02:24:05;;;;;;;31.85;15.23;;;4.20;61.80;;;;;;5147553;27;20033;-81
2022/03/08 02:26:31;;;;;;;22.67;12.27;;;4.30;61.70;;;;;;5156322;27;20023;-81
2022/03/08 02:28:59;;;;;;;22.52;13.23;;;4.20;61.50;;;;;;5156972;27;20035;-81
2022/03/08 02:31:25;;;;;;;20.08;10.45;;;4.20;61.80;;;;;;5156402;27;20023;-81
2022/03/08 02:33:50;;;;;;;25.75;13.20;;;4.10;62.30;;;;;;5140097;27;20103;-81
2022/03/08 02:36:16;;;;;;;26.48;14.20;;;4.20;62.30;;;;;;5140240;27;20015;-81
2022/03/08 02:38:42;;;;;;;22.35;12.77;;;4.20;62.20;;;;;;5140124;27;20434;-81
2022/03/08 02:41:08;;;;;;;20.02;11.15;;;4.20;62.20;;;;;;5148345;27;20425;-81
2022/03/08 02:43:33;;;;;;;20.17;11.38;;;4.00;62.50;;;;;;5160885;27;20030;-81
2022/03/08 02:45:59;;;;;;;31.55;13.90;;;4.10;62.70;;;;;;5143357;27;20064;-81
2022/03/08 02:48:25;;;;;;;27.95;13.32;;;4.10;62.70;;;;;;5139955;27;20507;-81
2022/03/08 02:50:51;;;;;;;23.70;13.13;;;4.20;62.90;;;;;;5140025;27;20027;-81
2022/03/08 02:53:17;;;;;;;31.33;15.43;;;4.20;62.80;;;;;;5139778;27;20030;-81
2022/03/08 02:55:43;;;;;;;26.08;14.23;;;4.10;62.60;;;;;;5121107;27;20029;-81
2022/03/08 02:58:09;;;;;;;34.85;13.88;;;4.20;62.60;;;;;;5139858;27;20445;-81
2022/03/08 03:00:35;;;;;;;24.80;13.70;;;4.20;62.70;;;;;;5141317;27;20761;-81
2022/03/08 03:03:01;;;;;;;31.25;16.52;;;4.20;62.80;;;;;;5141485;27;20026;-81
2022/03/08 03:05:27;;;;;;;31.92;16.00;;;4.20;63.00;;;;;;5141824;27;20050;-81
2022/03/08 03:07:53;;;;;;;28.08;14.00;;;4.20;62.80;;;;;;5140425;27;20031;-81
2022/03/08 03:10:20;;;;;;;22.23;13.70;;;4.20;62.70;;;;;;5160140;27;20022;-81
2022/03/08 03:12:46;;;;;;;27.05;14.52;;;4.20;62.90;;;;;;5141194;27;20091;-81
2022/03/08 03:15:14;;;;;;;31.88;15.73;;;4.30;62.70;;;;;;5157469;27;20047;-81
2022/03/08 03:17:40;;;;;;;22.08;11.93;;;4.20;62.70;;;;;;5126595;27;20050;-81
2022/03/08 03:20:08;;;;;;;20.83;11.30;;;4.20;62.70;;;;;;5144614;27;20030;-81
2022/03/08 03:22:35;;;;;;;20.42;10.65;;;4.30;62.70;;;;;;5120654;27;20022;-81
2022/03/08 03:25:01;;;;;;;25.80;13.20;;;4.30;62.70;;;;;;5156595;27;20050;-81
2022/03/08 03:27:27;;;;;;;17.60;10.77;;;4.30;62.90;;;;;;5139219;27;20056;-81
2022/03/08 03:29:53;;;;;;;32.08;15.52;;;4.30;62.80;;;;;;5120759;27;20023;-81
2022/03/08 03:32:23;;;;;;;22.88;11.98;;;4.30;62.90;;;;;;5139055;27;20434;-81
2022/03/08 03:34:49;;;;;;;25.73;13.32;;;4.20;63.00;;;;;;5138651;27;20510;-81
2022/03/08 03:37:15;;;;;;;21.42;12.63;;;4.30;63.10;;;;;;5139131;27;20054;-81
2022/03/08 03:39:41;;;;;;;26.92;13.32;;;4.40;62.70;;;;;;5139100;27;20019;-81
2022/03/08 03:42:07;;;;;;;28.50;16.58;;;4.50;62.60;;;;;;5137891;27;20488;-81
2022/03/08 03:44:34;;;;;;;26.98;13.60;;;4.50;62.40;;;;;;5138969;27;20509;-81
2022/03/08 03:47:00;;;;;;;27.20;12.82;;;4.50;62.70;;;;;;5139042;27;20027;-81
2022/03/08 03:49:26;;;;;;;23.30;13.32;;;4.40;62.90;;;;;;5120089;27;20035;-81
2022/03/08 03:51:51;;;;;;;21.58;10.05;;;4.60;62.60;;;;;;5138825;27;20026;-81
2022/03/08 03:54:18;;;;;;;33.70;15.82;;;4.60;62.50;;;;;;5138325;27;20027;-81
2022/03/08 03:56:44;;;;;;;33.55;16.42;;;4.50;62.60;;;;;;5138425;27;20405;-81
2022/03/08 03:59:10;;;;;;;27.58;14.88;;;4.60;62.90;;;;;;5120063;27;20117;-81
2022/03/08 04:01:36;;;;;;;26.42;13.82;;;4.60;62.60;;;;;;5138528;27;20051;-81
2022/03/08 04:04:02;;;;;;;28.83;15.00;;;4.60;62.50;;;;;;5145005;27;20042;-81
2022/03/08 04:06:27;;;;;;;23.70;13.70;;;4.70;62.70;;;;;;5159551;27;20037;-81
2022/03/08 04:08:53;;;;;;;23.15;12.15;;;4.60;62.70;;;;;;5159266;27;20079;-81
2022/03/08 04:11:19;;;;;;;24.60;12.25;;;4.60;63.00;;;;;;5155865;27;20023;-81
2022/03/08 04:13:44;;;;;;;27.25;14.80;;;4.60;62.70;;;;;;5138354;27;20065;-81
2022/03/08 04:16:10;;;;;;;26.67;14.43;;;4.70;62.70;;;;;;5138348;27;20024;-82
2022/03/08 04:18:36;;;;;;;20.95;12.02;;;4.70;62.60;;;;;;5138063;27;20034;-81
2022/03/08 04:21:01;;;;;;;27.63;13.23;;;4.70;62.60;;;;;;5119673;27;20015;-81
2022/03/08 04:23:27;;;;;;;35.83;14.73;;;4.70;62.80;;;;;;5144399;27;20026;-81
2022/03/08 04:25:54;;;;;;;20.17;11.48;;;4.70;62.70;;;;;;5158854;27;20384;-81
2022/03/08 04:28:19;;;;;;;25.80;13.88;;;4.70;62.80;;;;;;5142971;27;20038;-81
2022/03/08 04:30:45;;;;;;;29.63;15.00;;;4.70;62.70;;;;;;5137921;27;20035;-81
2022/03/08 04:33:11;;;;;;;30.55;15.73;;;4.60;63.00;;;;;;5149799;27;20031;-81
2022/03/08 04:35:37;;;;;;;23.42;12.95;;;4.70;62.90;;;;;;5158633;27;20605;-81
2022/03/08 04:38:02;;;;;;;24.10;14.13;;;4.70;62.70;;;;;;5158652;27;20034;-81
2022/03/08 04:40:28;;;;;;;24.00;13.32;;;4.70;62.90;;;;;;5139714;27;20022;-81
2022/03/08 04:42:54;;;;;;;19.48;10.35;;;4.70;62.90;;;;;;5141969;27;20066;-81
2022/03/08 04:45:20;;;;;;;24.13;13.05;;;4.70;63.00;;;;;;5137462;27;20027;-81
2022/03/08 04:47:45;;;;;;;21.50;11.95;;;4.70;63.00;;;;;;5137546;27;20056;-81
2022/03/08 04:50:16;;;;;;;25.65;13.93;;;4.70;63.20;;;;;;5137696;27;20084;-81
2022/03/08 04:52:47;;;;;;;27.73;15.13;;;4.70;63.30;;;;;;5136406;27;20034;-81
2022/03/08 04:55:13;;;;;;;31.30;13.90;;;4.70;63.50;;;;;;5137353;27;20068;-81
2022/03/08 04:57:39;;;;;;;18.17;10.20;;;4.80;63.40;;;;;;5119132;27;20065;-81
2022/03/08 05:00:07;;;;;;;27.55;13.90;;;4.70;63.40;;;;;;5152580;27;20034;-81
2022/03/08 05:02:33;;;;;;;24.88;12.55;;;4.70;63.70;;;;;;5157854;27;20042;-82
2022/03/08 05:04:59;;;;;;;20.67;11.25;;;4.70;63.90;;;;;;5157947;27;20015;-81
2022/03/08 05:07:24;;;;;;;29.70;15.20;;;4.70;63.90;;;;;;5141410;27;20031;-81
2022/03/08 05:09:50;;;;;;;28.85;14.57;;;4.80;63.90;;;;;;5137118;27;20035;-81
2022/03/08 05:12:16;;;;;;;28.85;15.60;;;4.80;63.90;;;;;;5136986;27;20121;-81
2022/03/08 05:14:41;;;;;;;27.38;14.88;;;4.80;63.90;;;;;;5135159;27;20503;-82
2022/03/08 05:17:07;;;;;;;23.55;12.85;;;4.90;63.50;;;;;;5157811;27;20030;-82
2022/03/08 05:19:33;;;;;;;25.05;13.63;;;4.90;63.70;;;;;;5155499;27;20495;-82
2022/03/08 05:21:59;;;;;;;24.13;12.07;;;5.00;63.80;;;;;;5155191;27;20025;-82
2022/03/08 05:24:25;;;;;;;22.25;12.75;;;4.80;63.70;;;;;;5157429;27;20500;-81
2022/03/08 05:26:50;;;;;;;29.35;15.32;;;5.00;63.90;;;;;;5141259;27;20062;-80
2022/03/08 05:29:16;;;;;;;26.50;13.68;;;5.00;63.80;;;;;;5147774;27;20106;-80
2022/03/08 05:31:42;;;;;;;25.38;13.00;;;4.90;63.80;;;;;;5136885;27;20023;-80
2022/03/08 05:34:08;;;;;;;28.38;13.10;;;4.90;63.60;;;;;;5152423;27;20109;-79
2022/03/08 05:36:34;;;;;;;28.85;13.85;;;5.00;63.50;;;;;;5157321;27;20029;-79
2022/03/08 05:39:00;;;;;;;30.17;15.10;;;5.10;63.40;;;;;;5122658;27;20027;-79
2022/03/08 05:41:26;;;;;;;16.75;10.10;;;5.10;63.50;;;;;;5136569;27;20031;-79
2022/03/08 05:43:52;;;;;;;28.75;12.75;;;5.10;63.50;;;;;;5133588;27;20122;-79
2022/03/08 05:46:17;;;;;;;23.00;11.98;;;5.10;63.30;;;;;;5136835;27;20582;-79
2022/03/08 06:19:17;;;;;;;24.25;9.93;;;3.90;68.70;;;;;;5057171;28;20400;-82
2022/03/08 06:21:43;;;;;;;28.83;12.48;;;4.00;68.50;;;;;;5072369;28;20368;-78
2022/03/08 06:24:11;;;;;;;25.27;12.57;;;4.30;67.90;;;;;;5070102;28;20381;-79
2022/03/08 06:26:37;;;;;;;25.40;12.27;;;4.50;66.80;;;;;;5066801;28;20116;-78
2022/03/08 06:29:03;;;;;;;30.02;13.15;;;4.70;65.90;;;;;;5052544;28;20468;-79
2022/03/08 06:31:28;;;;;;;29.17;12.30;;;4.90;65.30;;;;;;5068981;28;20407;-80
2022/03/08 06:33:54;;;;;;;31.58;15.10;;;5.00;65.00;;;;;;5070274;28;20032;-79
2022/03/08 06:36:20;;;;;;;27.33;13.23;;;5.10;64.80;;;;;;5065107;28;20029;-80
2022/03/08 06:38:46;;;;;;;29.17;15.82;;;5.10;64.70;;;;;;5052296;28;20086;-78
2022/03/08 06:41:12;;;;;;;25.27;13.60;;;5.10;64.60;;;;;;5060995;28;20477;-78
2022/03/08 06:43:39;;;;;;;21.58;12.90;;;5.10;64.80;;;;;;5066757;28;20064;-78
2022/03/08 06:46:05;;;;;;;27.70;14.70;;;5.20;64.70;;;;;;5061771;28;20013;-77
2022/03/08 06:48:31;;;;;;;30.23;14.35;;;5.20;64.70;;;;;;5050177;28;20029;-78
2022/03/08 06:50:56;;;;;;;24.73;13.30;;;5.20;64.50;;;;;;5050443;28;20033;-78
2022/03/08 06:53:22;;;;;;;29.88;13.75;;;5.20;64.60;;;;;;5048760;28;20107;-78
2022/03/08 06:55:49;;;;;;;32.28;15.50;;;5.30;64.50;;;;;;5083765;28;20447;-78
2022/03/08 06:58:14;;;;;;;28.55;15.98;;;5.30;64.80;;;;;;5083888;28;20143;-78
2022/03/08 07:00:40;;;;;;;27.13;14.50;;;5.30;64.90;;;;;;5050101;28;20488;-78
2022/03/08 07:03:06;;;;;;;27.77;14.20;;;5.30;64.90;;;;;;5051306;28;20113;-78
2022/03/08 07:05:32;;;;;;;22.88;13.27;;;5.30;65.00;;;;;;5050190;28;20056;-77
2022/03/08 07:07:57;;;;;;;29.35;15.10;;;5.30;65.00;;;;;;5051626;28;20040;-78
2022/03/08 07:10:23;;;;;;;29.73;13.80;;;5.40;64.90;;;;;;5050097;28;20148;-78
2022/03/08 07:12:49;;;;;;;28.25;15.63;;;5.50;64.70;;;;;;5069293;28;20025;-78
2022/03/08 07:15:15;;;;;;;29.25;14.18;;;5.50;64.80;;;;;;5052081;28;20064;-78
2022/03/08 07:17:45;;;;;;;27.50;13.45;;;5.60;64.70;;;;;;5051391;28;20525;-78
2022/03/08 07:20:11;;;;;;;;;;;5.50;64.90;;;;;;5051966;28;20021;-77
2022/03/08 07:22:37;;;;;;;25.25;12.93;;;5.50;64.80;;;;;;5066494;28;19909;-78
2022/03/08 07:25:03;;;;;;;26.63;13.85;;;5.60;64.90;;;;;;5082721;28;20059;-78
2022/03/08 07:27:29;;;;;;;28.77;13.88;;;5.60;64.90;;;;;;5066551;28;20499;-78
2022/03/08 07:29:55;;;;;;;24.67;13.73;;;5.60;64.80;;;;;;5040414;28;20137;-77
2022/03/08 07:32:21;;;;;;;28.88;14.45;;;5.60;64.90;;;;;;5042352;28;20406;-77
2022/03/08 07:34:46;;;;;;;25.70;14.00;;;5.70;65.10;;;;;;5037911;28;20777;-78
2022/03/08 07:37:12;;;;;;;28.92;14.60;;;5.70;64.90;;;;;;5053476;28;20032;-77
2022/03/08 07:39:38;;;;;;;28.02;12.35;;;5.70;64.90;;;;;;5049559;28;20025;-76
2022/03/08 07:42:04;;;;;;;26.60;14.38;;;5.70;65.10;;;;;;5037793;28;20380;-77
2022/03/08 07:44:30;;;;;;;27.45;14.77;;;5.70;65.00;;;;;;5037603;28;20053;-77
2022/03/08 07:46:56;;;;;;;27.73;14.63;;;5.70;64.90;;;;;;5037465;28;20017;-77
2022/03/08 07:49:22;;;;;;;27.15;13.65;;;5.70;65.10;;;;;;5036289;28;20566;-78
2022/03/08 07:51:48;;;;;;;28.33;13.13;;;5.70;65.30;;;;;;5052671;28;20021;-77
2022/03/08 07:54:14;;;;;;;24.40;13.25;;;5.70;65.10;;;;;;5057420;28;20040;-77
2022/03/08 07:56:39;;;;;;;22.40;13.82;;;5.80;65.10;;;;;;5056329;28;20041;-77
2022/03/08 07:59:05;;;;;;;26.92;14.63;;;5.80;65.10;;;;;;5055940;28;20021;-77
2022/03/08 08:01:31;;;;;;;19.92;10.90;;;5.90;65.10;;;;;;5055734;28;20112;-77
2022/03/08 08:03:57;;;;;;;25.35;13.38;;;5.90;65.10;;;;;;5047361;28;20018;-77
2022/03/08 08:06:23;;;;;;;22.45;12.57;;;6.00;64.90;;;;;;5037407;28;20026;-77
2022/03/08 08:08:49;;;;;;;25.67;13.40;;;6.10;64.90;;;;;;5037338;28;20067;-77
2022/03/08 08:11:14;;;;;;;17.05;10.68;;;6.10;65.00;;;;;;5044272;28;20037;-78
2022/03/08 08:13:40;;;;;;;28.38;13.68;;;6.20;64.60;;;;;;5057028;28;20040;-77
2022/03/08 08:16:06;;;;;;;26.40;13.32;;;6.30;64.90;;;;;;5053914;28;20037;-77
2022/03/08 08:18:31;;;;;;;27.95;13.82;;;6.30;64.40;;;;;;5035500;28;20045;-77
2022/03/08 08:20:57;;;;;;;25.50;13.35;;;6.30;64.20;;;;;;5050073;28;20112;-77
2022/03/08 08:23:23;;;;;;;17.13;11.05;;;6.30;64.40;;;;;;5048015;28;20028;-77
2022/03/08 08:25:49;;;;;;;20.75;11.13;;;6.30;64.50;;;;;;5075414;28;20027;-77
2022/03/08 08:28:15;;;;;;;25.05;14.60;;;6.30;65.50;;;;;;5076852;28;20020;-77
2022/03/08 08:30:41;;;;;;;25.35;13.98;;;6.30;65.90;;;;;;5065842;28;20436;-77
2022/03/08 08:33:07;;;;;;;29.00;12.68;;;6.30;65.90;;;;;;5068674;28;20076;-77
2022/03/08 08:35:32;;;;;;;25.30;13.38;;;6.30;65.70;;;;;;5035158;28;20034;-77
2022/03/08 08:37:58;;;;;;;27.90;13.43;;;6.30;65.90;;;;;;5036548;28;20025;-77
2022/03/08 08:40:24;;;;;;;25.50;13.18;;;6.50;65.60;;;;;;5036005;28;20030;-77
2022/03/08 08:42:50;;;;;;;25.02;14.80;;;6.50;65.40;;;;;;5034900;28;20145;-77
2022/03/08 08:45:15;;;;;;;21.42;10.73;;;6.60;65.60;;;;;;5035198;28;20384;-77
2022/03/08 08:47:41;;;;;;;26.80;13.88;;;6.60;65.10;;;;;;5036671;28;20053;-77
2022/03/08 08:50:07;;;;;;;25.88;14.98;;;6.70;65.10;;;;;;5051606;28;20041;-78
2022/03/08 08:52:33;;;;;;;25.60;12.90;;;6.80;65.10;;;;;;5036483;28;20025;-77
2022/03/08 08:54:59;;;;;;;20.55;11.60;;;6.90;64.90;;;;;;5035947;28;20026;-78
2022/03/08 08:57:25;;;;;;;28.48;13.88;;;7.10;64.50;;;;;;5036336;28;20511;-77
2022/03/08 08:59:50;;;;;;;23.23;12.48;;;7.30;63.80;;;;;;5036631;28;20037;-78
2022/03/08 09:02:16;;;;;;;23.10;12.98;;;7.60;63.40;;;;;;5038330;28;20017;-78
2022/03/08 09:04:42;;;;;;;24.63;12.77;;;7.80;63.10;;;;;;5045253;28;20032;-78
2022/03/08 09:07:08;;;;;;;22.08;11.35;;;7.90;62.80;;;;;;5036410;28;20032;-77
2022/03/08 09:09:33;;;;;;;27.95;13.32;;;8.00;62.10;;;;;;5036101;28;20034;-78
2022/03/08 09:11:59;;;;;;;26.65;13.50;;;8.30;62.30;;;;;;5047653;28;20063;-78
2022/03/08 09:14:25;;;;;;;20.85;11.93;;;8.40;61.60;;;;;;5054669;28;20025;-78
2022/03/08 09:16:51;;;;;;;25.42;13.60;;;8.70;61.30;;;;;;5055774;28;20103;-78
2022/03/08 09:19:17;;;;;;;22.33;12.98;;;8.80;61.20;;;;;;5042127;28;20097;-78
2022/03/08 09:21:42;;;;;;;23.15;11.90;;;8.80;61.00;;;;;;5036154;28;20029;-78
2022/03/08 09:24:08;;;;;;;16.75;11.70;;;8.90;61.00;;;;;;5042988;28;20060;-78
2022/03/08 09:26:33;;;;;;;20.17;12.85;;;9.00;61.30;;;;;;5035790;28;20391;-78
2022/03/08 09:28:59;;;;;;;22.10;11.50;;;9.10;60.90;;;;;;5035449;28;20033;-79
2022/03/08 09:31:25;;;;;;;20.50;12.18;;;9.10;60.90;;;;;;5035898;28;20025;-78
2022/03/08 09:33:51;;;;;;;21.05;11.57;;;9.00;61.20;;;;;;5035997;28;20105;-78
2022/03/08 09:36:17;;;;;;;23.90;11.57;;;9.10;61.00;;;;;;5035661;28;20025;-78
2022/03/08 09:38:44;;;;;;;18.27;10.82;;;9.30;60.60;;;;;;5044645;28;20033;-78
2022/03/08 09:41:11;;;;;;;20.38;12.68;;;9.30;60.40;;;;;;5050668;28;20025;-78
2022/03/08 09:43:37;;;;;;;21.95;11.60;;;9.50;60.60;;;;;;5051179;28;20518;-78
2022/03/08 09:46:04;;;;;;;21.75;12.32;;;9.70;59.90;;;;;;5035171;28;20060;-78
2022/03/08 09:48:31;;;;;;;18.85;12.05;;;9.60;60.70;;;;;;5053062;28;20044;-78
2022/03/08 09:51:04;;;;;;;22.25;12.02;;;9.70;61.00;;;;;;5054003;28;20061;-78
2022/03/08 09:53:30;;;;;;;20.70;11.63;;;9.70;60.90;;;;;;5046622;28;20203;-78
2022/03/08 09:56:00;;;;;;;18.00;10.98;;;9.60;61.30;;;;;;5035279;28;20036;-78
2022/03/08 09:58:26;;;;;;;18.50;10.25;;;9.70;61.40;;;;;;5035670;28;20017;-78
2022/03/08 10:00:55;;;;;;;19.58;10.85;;;9.70;61.40;;;;;;5035267;28;20056;-78
2022/03/08 10:03:32;;;;;;;20.75;11.82;;;10.00;61.10;;;;;;5035209;28;20098;-78
2022/03/08 10:05:58;;;;;;;18.80;11.07;;;10.50;59.60;;;;;;5045555;28;20062;-78
2022/03/08 10:08:26;;;;;;;19.88;11.05;;;11.20;57.30;;;;;;5055519;28;20025;-78
2022/03/08 10:10:58;;;;;;;17.38;10.18;;;11.80;55.80;;;;;;5053647;28;20128;-78
2022/03/08 10:13:27;;;;;;;21.05;11.48;;;11.80;55.60;;;;;;5055112;28;20045;-78
2022/03/08 10:16:15;;;;;;;18.05;9.50;;;12.10;54.60;;;;;;5054016;28;20392;-78
2022/03/08 10:18:59;;;;;;;16.15;10.38;;;12.00;54.40;;;;;;5052031;28;20057;-78
2022/03/08 10:21:25;;;;;;;19.33;11.85;;;12.00;55.00;;;;;;5034903;28;20037;-77
2022/03/08 10:23:52;;;;;;;15.40;9.55;;;12.20;54.70;;;;;;5053745;28;20398;-78
2022/03/08 10:26:19;;;;;;;17.05;11.60;;;11.80;55.70;;;;;;5072787;28;20032;-78
2022/03/08 10:28:50;;;;;;;14.82;9.45;;;11.80;56.10;;;;;;5033689;28;20030;-78
2022/03/08 10:31:17;;;;;;;18.52;10.77;;;11.70;56.50;;;;;;5034939;28;20029;-77
2022/03/08 10:33:44;;;;;;;19.27;11.00;;;11.50;57.30;;;;;;5035088;28;20025;-78
2022/03/08 10:36:20;;;;;;;21.48;11.38;;;11.40;58.30;;;;;;5034913;28;20131;-77
2022/03/08 10:39:12;;;;;;;17.33;10.90;;;11.40;58.10;;;;;;5035317;28;20041;-77
2022/03/08 10:41:47;;;;;;;18.75;11.27;;;11.30;59.00;;;;;;5033318;28;20021;-77
2022/03/08 10:44:13;;;;;;;17.20;9.55;;;11.30;59.80;;;;;;5034970;28;20025;-77
2022/03/08 10:46:38;;;;;;;18.63;10.60;;;11.20;59.50;;;;;;5034754;28;20499;-77
2022/03/08 10:49:22;;;;;;;21.90;11.60;;;11.00;60.20;;;;;;5034738;28;20400;-78
2022/03/08 10:51:57;;;;;;;18.67;11.00;;;11.00;60.90;;;;;;5034833;28;20025;-77
2022/03/08 10:54:24;;;;;;;20.10;11.75;;;10.80;61.30;;;;;;5034762;28;20030;-78
2022/03/08 10:56:50;;;;;;;19.08;10.73;;;10.80;61.40;;;;;;5066643;28;20032;-78
2022/03/08 10:59:17;;;;;;;19.75;11.95;;;10.90;61.60;;;;;;5048010;28;20076;-78
2022/03/08 11:01:44;;;;;;;18.52;9.88;;;11.10;61.90;;;;;;5053209;28;20025;-77
2022/03/08 11:04:22;;;;;;;20.38;12.50;;;11.10;61.20;;;;;;5048270;28;20037;-77
2022/03/08 11:06:53;;;;;;;17.88;10.23;;;11.10;61.20;;;;;;5038464;28;20121;-78
2022/03/08 11:09:19;;;;;;;18.45;11.63;;;11.00;61.40;;;;;;5038439;28;20065;-78
2022/03/08 11:11:46;;;;;;;18.67;10.32;;;11.00;61.70;;;;;;5048103;28;20032;-78
2022/03/08 11:14:12;;;;;;;20.92;11.25;;;10.90;62.20;;;;;;5057148;28;20025;-77
2022/03/08 11:16:45;;;;;;;16.63;11.05;;;11.00;62.10;;;;;;5058190;28;20060;-78
2022/03/08 11:19:11;;;;;;;21.00;11.70;;;11.00;62.00;;;;;;5047490;28;20077;-77
2022/03/08 11:21:37;;;;;;;15.50;10.82;;;11.00;62.00;;;;;;5036777;28;20064;-78
2022/03/08 11:24:04;;;;;;;20.90;11.55;;;11.10;61.90;;;;;;5058841;28;20407;-78
2022/03/08 11:26:30;;;;;;;24.83;11.75;;;11.20;61.90;;;;;;5076577;28;20092;-78
2022/03/08 11:28:56;;;;;;;17.45;11.20;;;11.10;61.90;;;;;;5051377;28;20052;-78
2022/03/08 11:31:29;;;;;;;20.77;12.00;;;11.40;61.60;;;;;;5037773;28;20025;-78
2022/03/08 11:34:01;;;;;;;19.42;11.65;;;11.60;60.70;;;;;;5037917;28;20024;-78
2022/03/08 11:36:50;;;;;;;19.20;12.38;;;11.60;61.10;;;;;;5037697;28;20032;-78
2022/03/08 11:39:16;;;;;;;20.13;12.43;;;11.80;60.70;;;;;;5037867;28;20017;-78
2022/03/08 11:41:45;;;;;;;22.77;12.55;;;12.00;60.20;;;;;;5037737;28;20038;-78
2022/03/08 11:44:22;;;;;;;18.58;11.02;;;12.30;60.20;;;;;;5037778;28;20079;-78
2022/03/08 11:47:03;;;;;;;18.67;11.20;;;12.40;59.30;;;;;;5037718;28;20041;-78
2022/03/08 11:50:02;;;;;;;18.05;11.07;;;12.30;59.20;;;;;;5041743;28;20026;-78
2022/03/08 11:52:36;;;;;;;19.75;11.65;;;12.30;60.10;;;;;;5025543;28;20042;-78
2022/03/08 11:55:08;;;;;;;15.18;9.10;;;12.60;59.80;;;;;;5037292;28;20064;-77
2022/03/08 11:57:55;;;;;;;12.85;8.10;;;12.30;59.70;;;;;;5049801;28;20025;-78
2022/03/08 12:00:21;;;;;;;15.10;9.82;;;12.30;61.30;;;;;;5057350;28;20064;-78
2022/03/08 12:02:50;;;;;;;15.23;9.68;;;12.30;60.70;;;;;;5038727;28;20026;-77
2022/03/08 12:05:38;;;;;;;15.80;8.63;;;12.30;61.10;;;;;;5037387;28;20052;-78
2022/03/08 12:08:28;;;;;;;17.10;10.35;;;12.30;60.80;;;;;;5037221;28;20081;-78
2022/03/08 12:11:03;;;;;;;15.88;9.57;;;12.50;61.60;;;;;;5047027;28;20025;-78
2022/03/08 12:13:32;;;;;;;12.43;7.60;;;12.50;61.60;;;;;;5056956;28;20483;-78
2022/03/08 12:16:09;;;;;;;18.83;9.68;;;12.50;60.40;;;;;;5057201;28;20021;-78
2022/03/08 12:18:39;;;;;;;18.27;10.02;;;12.40;61.20;;;;;;5038898;28;20065;-78
2022/03/08 12:24:14;;;;;;;13.60;8.05;;;12.70;60.90;;;;;;5053232;28;20028;-78
2022/03/08 12:26:52;;;;;;;16.52;9.05;;;12.60;61.30;;;;;;5037529;28;20045;-78
2022/03/08 12:29:22;;;;;;;14.85;9.48;;;12.90;61.10;;;;;;5036708;28;20025;-79
2022/03/08 12:32:14;;;;;;;13.98;9.20;;;13.00;61.10;;;;;;5039238;28;20477;-78
2022/03/08 12:34:43;;;;;;;18.80;10.68;;;12.80;61.20;;;;;;5054987;28;20609;-78
2022/03/08 12:37:38;;;;;;;17.48;10.43;;;12.80;62.40;;;;;;5056287;28;20025;-78
2022/03/08 12:40:10;;;;;;;17.90;9.57;;;12.50;63.00;;;;;;5038615;28;20026;-78
2022/03/08 12:42:36;;;;;;;18.15;9.32;;;12.30;64.00;;;;;;5036570;28;20104;-78
2022/03/08 12:45:15;;;;;;;14.82;8.18;;;12.30;64.60;;;;;;5035465;28;20026;-78
2022/03/08 12:47:47;;;;;;;14.20;7.95;;;12.10;65.70;;;;;;5035204;28;20037;-78
2022/03/08 12:50:28;;;;;;;10.80;6.32;;;12.00;66.10;;;;;;5036306;28;20037;-78
2022/03/08 12:52:56;;;;;;;13.48;8.10;;;11.90;66.30;;;;;;5036335;28;20430;-78
2022/03/08 12:55:25;;;;;;;16.13;7.78;;;12.10;66.40;;;;;;5055948;28;20132;-78
2022/03/08 12:57:55;;;;;;;14.48;7.28;;;12.00;66.50;;;;;;5054950;28;20033;-78
2022/03/08 13:00:50;;;;;;;11.55;6.82;;;11.90;66.40;;;;;;5049339;28;20040;-78
2022/03/08 13:03:22;;;;;;;13.93;7.72;;;11.80;66.60;;;;;;5036207;28;20120;-78
2022/03/08 13:05:53;;;;;;;14.20;7.75;;;11.80;66.90;;;;;;5034689;28;20033;-78
2022/03/08 13:08:20;;;;;;;11.05;6.80;;;11.90;67.00;;;;;;5036286;28;20084;-78
2022/03/08 13:11:00;;;;;;;13.82;8.43;;;11.80;67.50;;;;;;5037991;28;20021;-78